EJU958Q LFBD-LFQQ
Flight info
| Callsign | EJU958Q |
|---|---|
| Flight time | 1h 6m |
| Altitude | 30000 |
| Route | CNA DCT ADABI DCT BOKNO UN858 VANAD UN874 VADOM/N0399F280 UN874 ARSAF DCT EGOZE DCT PERON N874 CMB |
| Aircraft | A320/M-SDE2E3FGHIJ1RWXYZ/LB1 |
Departure
| Time | 2026-04-15 08:51 |
|---|---|
| Airport | Bordeaux–Mérignac Airport (LFBD) |
Arrival
| Time | 2026-04-15 09:57 |
|---|---|
| Airport | Lille Airport (LFQQ) |
| Time | Latitude | Longitude | Altitude | Speed | Heading |
|---|---|---|---|---|---|
| 2026-04-15 08:19 | 44.82890 | -0.70078 | 168 ft | 0 kts | 52° |
| 2026-04-15 08:42 | 44.82882 | -0.70093 | 167 ft | 4 kts | 43° |
| 2026-04-15 08:42 | 44.82860 | -0.70112 | 168 ft | 4 kts | 8° |
| 2026-04-15 08:42 | 44.82836 | -0.70108 | 168 ft | 4 kts | 319° |
| 2026-04-15 08:43 | 44.82827 | -0.70094 | 168 ft | 1 kts | 287° |
| 2026-04-15 08:45 | 44.82831 | -0.70112 | 168 ft | 6 kts | 287° |
| 2026-04-15 08:45 | 44.82850 | -0.70202 | 168 ft | 10 kts | 287° |
| 2026-04-15 08:46 | 44.82870 | -0.70296 | 167 ft | 11 kts | 286° |
| 2026-04-15 08:46 | 44.82891 | -0.70421 | 167 ft | 14 kts | 271° |
| 2026-04-15 08:46 | 44.82863 | -0.70546 | 167 ft | 13 kts | 268° |
| 2026-04-15 08:46 | 44.82885 | -0.70667 | 166 ft | 13 kts | 286° |
| 2026-04-15 08:47 | 44.82910 | -0.70787 | 166 ft | 13 kts | 286° |
| 2026-04-15 08:47 | 44.82933 | -0.70900 | 165 ft | 10 kts | 286° |
| 2026-04-15 08:47 | 44.82980 | -0.70927 | 165 ft | 9 kts | 36° |
| 2026-04-15 08:47 | 44.83042 | -0.70831 | 164 ft | 18 kts | 46° |
| 2026-04-15 08:48 | 44.83143 | -0.70687 | 164 ft | 22 kts | 45° |
| 2026-04-15 08:48 | 44.83256 | -0.70525 | 163 ft | 24 kts | 46° |
| 2026-04-15 08:48 | 44.83380 | -0.70346 | 162 ft | 26 kts | 45° |
| 2026-04-15 08:48 | 44.83475 | -0.70210 | 161 ft | 15 kts | 45° |
| 2026-04-15 08:49 | 44.83544 | -0.70114 | 161 ft | 11 kts | 44° |
| 2026-04-15 08:49 | 44.83598 | -0.70038 | 161 ft | 11 kts | 45° |
| 2026-04-15 08:49 | 44.83659 | -0.70010 | 161 ft | 9 kts | 348° |
| 2026-04-15 08:49 | 44.83725 | -0.70045 | 160 ft | 13 kts | 336° |
| 2026-04-15 08:50 | 44.83805 | -0.70104 | 160 ft | 13 kts | 320° |
| 2026-04-15 08:50 | 44.83800 | -0.70202 | 160 ft | 11 kts | 223° |
| 2026-04-15 08:50 | 44.83704 | -0.70339 | 161 ft | 44 kts | 225° |
| 2026-04-15 08:50 | 44.83301 | -0.70912 | 165 ft | 116 kts | 225° |
| 2026-04-15 08:51 | 44.82609 | -0.71896 | 220 ft | 165 kts | 226° |
| 2026-04-15 08:51 | 44.81808 | -0.73061 | 961 ft | 162 kts | 226° |
| 2026-04-15 08:51 | 44.81011 | -0.74201 | 1708 ft | 168 kts | 226° |
| 2026-04-15 08:51 | 44.80146 | -0.75422 | 2238 ft | 184 kts | 226° |
| 2026-04-15 08:52 | 44.79210 | -0.76763 | 2683 ft | 206 kts | 226° |
| 2026-04-15 08:52 | 44.78337 | -0.78490 | 3149 ft | 230 kts | 253° |
| 2026-04-15 08:52 | 44.78375 | -0.80810 | 3645 ft | 252 kts | 292° |
| 2026-04-15 08:52 | 44.79503 | -0.82708 | 4494 ft | 262 kts | 329° |
| 2026-04-15 08:53 | 44.81260 | -0.83393 | 5461 ft | 268 kts | 357° |
| 2026-04-15 08:53 | 44.83135 | -0.83249 | 6473 ft | 271 kts | 6° |
| 2026-04-15 08:53 | 44.85014 | -0.82880 | 7405 ft | 275 kts | 6° |
| 2026-04-15 08:53 | 44.86927 | -0.82533 | 8331 ft | 280 kts | 4° |
| 2026-04-15 08:54 | 44.88888 | -0.82289 | 9258 ft | 285 kts | 2° |
| 2026-04-15 08:54 | 44.90893 | -0.82135 | 10159 ft | 291 kts | 3° |
| 2026-04-15 08:54 | 44.92896 | -0.81522 | 10951 ft | 299 kts | 18° |
| 2026-04-15 08:54 | 44.94753 | -0.80140 | 11774 ft | 306 kts | 35° |
| 2026-04-15 08:55 | 44.96395 | -0.78181 | 12287 ft | 324 kts | 40° |
| 2026-04-15 08:55 | 44.98166 | -0.75970 | 12633 ft | 345 kts | 40° |
| 2026-04-15 08:55 | 44.99980 | -0.73682 | 13300 ft | 353 kts | 40° |
| 2026-04-15 08:55 | 45.01821 | -0.71349 | 14067 ft | 358 kts | 40° |
| 2026-04-15 08:56 | 45.03685 | -0.68989 | 14749 ft | 362 kts | 40° |
| 2026-04-15 08:56 | 45.05576 | -0.66598 | 15430 ft | 366 kts | 40° |
| 2026-04-15 08:56 | 45.07489 | -0.64181 | 16109 ft | 370 kts | 40° |
| 2026-04-15 08:56 | 45.09391 | -0.61776 | 16782 ft | 374 kts | 40° |
| 2026-04-15 08:57 | 45.11344 | -0.59304 | 17461 ft | 379 kts | 40° |
| 2026-04-15 08:57 | 45.13345 | -0.56852 | 18136 ft | 382 kts | 35° |
| 2026-04-15 08:57 | 45.15596 | -0.54838 | 18754 ft | 384 kts | 24° |
| 2026-04-15 08:57 | 45.18118 | -0.53421 | 19327 ft | 386 kts | 15° |
| 2026-04-15 08:58 | 45.20652 | -0.52273 | 19901 ft | 389 kts | 15° |
| 2026-04-15 08:58 | 45.25886 | -0.49870 | 21045 ft | 396 kts | 16° |
| 2026-04-15 08:58 | 45.28483 | -0.48662 | 21611 ft | 400 kts | 16° |
| 2026-04-15 08:59 | 45.31172 | -0.47407 | 22156 ft | 404 kts | 16° |
| 2026-04-15 08:59 | 45.33852 | -0.46159 | 22719 ft | 407 kts | 16° |
| 2026-04-15 08:59 | 45.36556 | -0.44905 | 23257 ft | 411 kts | 15° |
| 2026-04-15 08:59 | 45.39284 | -0.43641 | 23778 ft | 414 kts | 16° |
| 2026-04-15 09:00 | 45.42035 | -0.42365 | 24209 ft | 418 kts | 15° |
| 2026-04-15 09:00 | 45.44806 | -0.41074 | 24648 ft | 421 kts | 15° |
| 2026-04-15 09:00 | 45.47595 | -0.39769 | 25086 ft | 423 kts | 15° |
| 2026-04-15 09:00 | 45.50370 | -0.38465 | 25514 ft | 426 kts | 15° |
| 2026-04-15 09:01 | 45.53197 | -0.37140 | 25939 ft | 429 kts | 15° |
| 2026-04-15 09:01 | 45.56042 | -0.35810 | 26349 ft | 432 kts | 15° |
| 2026-04-15 09:01 | 45.58906 | -0.34473 | 26774 ft | 435 kts | 15° |
| 2026-04-15 09:01 | 45.61790 | -0.33123 | 27177 ft | 437 kts | 15° |
| 2026-04-15 09:02 | 45.64688 | -0.31719 | 27568 ft | 442 kts | 19° |
| 2026-04-15 09:02 | 45.67466 | -0.29794 | 27957 ft | 448 kts | 28° |
| 2026-04-15 09:02 | 45.70106 | -0.27392 | 28356 ft | 451 kts | 30° |
| 2026-04-15 09:02 | 45.72757 | -0.24944 | 28762 ft | 454 kts | 30° |
| 2026-04-15 09:03 | 45.75419 | -0.22487 | 29153 ft | 457 kts | 30° |
| 2026-04-15 09:03 | 45.78101 | -0.20012 | 29529 ft | 459 kts | 30° |
| 2026-04-15 09:03 | 45.79916 | -0.18338 | 29784 ft | 461 kts | 30° |
| 2026-04-15 09:03 | 45.83502 | -0.15033 | 30182 ft | 464 kts | 30° |
| 2026-04-15 09:04 | 45.87927 | -0.10942 | 30218 ft | 443 kts | 30° |
| 2026-04-15 09:04 | 45.93040 | -0.06190 | 30223 ft | 435 kts | 30° |
| 2026-04-15 09:05 | 45.98125 | -0.01478 | 30227 ft | 434 kts | 30° |
| 2026-04-15 09:05 | 46.03203 | 0.03228 | 30221 ft | 434 kts | 30° |
| 2026-04-15 09:06 | 46.08279 | 0.07955 | 30223 ft | 434 kts | 30° |
| 2026-04-15 09:06 | 46.13348 | 0.12692 | 30227 ft | 434 kts | 30° |
| 2026-04-15 09:07 | 46.18408 | 0.17432 | 30229 ft | 433 kts | 30° |
| 2026-04-15 09:07 | 46.23457 | 0.22175 | 30225 ft | 433 kts | 31° |
| 2026-04-15 09:08 | 46.28505 | 0.26921 | 30225 ft | 433 kts | 31° |
| 2026-04-15 09:08 | 46.33547 | 0.31681 | 30224 ft | 433 kts | 31° |
| 2026-04-15 09:09 | 46.38593 | 0.36447 | 30236 ft | 432 kts | 31° |
| 2026-04-15 09:09 | 46.43626 | 0.41202 | 30241 ft | 432 kts | 31° |
| 2026-04-15 09:10 | 46.48662 | 0.45983 | 30246 ft | 432 kts | 31° |
| 2026-04-15 09:10 | 46.53690 | 0.50762 | 30240 ft | 431 kts | 29° |
| 2026-04-15 09:11 | 46.59162 | 0.54094 | 30240 ft | 424 kts | 10° |
| 2026-04-15 09:11 | 46.64915 | 0.55971 | 30231 ft | 424 kts | 9° |
| 2026-04-15 09:12 | 46.70670 | 0.57857 | 30221 ft | 424 kts | 9° |
| 2026-04-15 09:12 | 46.76436 | 0.59749 | 30217 ft | 424 kts | 9° |
| 2026-04-15 09:13 | 46.82195 | 0.61658 | 30209 ft | 425 kts | 10° |
| 2026-04-15 09:13 | 46.87926 | 0.63565 | 30202 ft | 425 kts | 10° |
| 2026-04-15 09:14 | 46.93696 | 0.65477 | 30208 ft | 425 kts | 9° |
| 2026-04-15 09:14 | 46.99464 | 0.67400 | 30205 ft | 425 kts | 10° |
| 2026-04-15 09:15 | 47.05247 | 0.69187 | 30209 ft | 423 kts | 3° |
| 2026-04-15 09:15 | 47.11098 | 0.69821 | 30204 ft | 422 kts | 1° |
| 2026-04-15 09:16 | 47.16966 | 0.70424 | 30203 ft | 423 kts | 1° |
| 2026-04-15 09:16 | 47.22841 | 0.71037 | 30213 ft | 423 kts | 1° |
| 2026-04-15 09:17 | 47.28720 | 0.71658 | 30208 ft | 423 kts | 1° |
| 2026-04-15 09:17 | 47.34595 | 0.72277 | 30201 ft | 424 kts | 1° |
| 2026-04-15 09:18 | 47.40476 | 0.72896 | 30212 ft | 424 kts | 1° |
| 2026-04-15 09:18 | 47.46371 | 0.73526 | 30205 ft | 425 kts | 1° |
| 2026-04-15 09:19 | 47.52195 | 0.75132 | 30210 ft | 430 kts | 16° |
| 2026-04-15 09:19 | 47.57871 | 0.77946 | 30199 ft | 431 kts | 15° |
| 2026-04-15 09:20 | 47.63563 | 0.80749 | 30206 ft | 431 kts | 15° |
| 2026-04-15 09:20 | 47.69224 | 0.83541 | 30193 ft | 431 kts | 15° |
| 2026-04-15 09:21 | 47.74954 | 0.86376 | 30191 ft | 432 kts | 15° |
| 2026-04-15 09:21 | 47.80653 | 0.89201 | 30186 ft | 432 kts | 15° |
| 2026-04-15 09:22 | 47.86351 | 0.92033 | 30183 ft | 432 kts | 16° |
| 2026-04-15 09:22 | 47.92053 | 0.94915 | 30183 ft | 432 kts | 16° |
| 2026-04-15 09:23 | 47.97748 | 0.97813 | 30181 ft | 433 kts | 16° |
| 2026-04-15 09:23 | 48.03449 | 1.00701 | 30180 ft | 433 kts | 16° |
| 2026-04-15 09:24 | 48.09148 | 1.03602 | 30181 ft | 433 kts | 16° |
| 2026-04-15 09:24 | 48.14853 | 1.06518 | 30183 ft | 433 kts | 16° |
| 2026-04-15 09:25 | 48.20557 | 1.09416 | 30182 ft | 433 kts | 16° |
| 2026-04-15 09:25 | 48.26229 | 1.12298 | 30182 ft | 433 kts | 16° |
| 2026-04-15 09:26 | 48.31932 | 1.15199 | 30183 ft | 433 kts | 16° |
| 2026-04-15 09:26 | 48.37640 | 1.18112 | 30181 ft | 433 kts | 16° |
| 2026-04-15 09:27 | 48.43356 | 1.21042 | 30180 ft | 433 kts | 16° |
| 2026-04-15 09:27 | 48.49064 | 1.23979 | 30179 ft | 433 kts | 16° |
| 2026-04-15 09:28 | 48.54768 | 1.26930 | 30178 ft | 433 kts | 16° |
| 2026-04-15 09:28 | 48.60486 | 1.29851 | 30179 ft | 433 kts | 15° |
| 2026-04-15 09:29 | 48.66208 | 1.32714 | 30177 ft | 433 kts | 15° |
| 2026-04-15 09:29 | 48.71931 | 1.35586 | 30179 ft | 433 kts | 15° |
| 2026-04-15 09:30 | 48.77654 | 1.38480 | 30183 ft | 433 kts | 16° |
| 2026-04-15 09:30 | 48.83377 | 1.41382 | 30183 ft | 433 kts | 16° |
| 2026-04-15 09:31 | 48.89101 | 1.44304 | 30186 ft | 433 kts | 16° |
| 2026-04-15 09:31 | 48.94779 | 1.47381 | 30189 ft | 435 kts | 23° |
| 2026-04-15 09:32 | 48.99791 | 1.52574 | 30182 ft | 439 kts | 43° |
| 2026-04-15 09:32 | 49.03894 | 1.59480 | 30179 ft | 440 kts | 47° |
| 2026-04-15 09:33 | 49.06967 | 1.64752 | 30181 ft | 440 kts | 47° |
| 2026-04-15 09:33 | 49.10340 | 1.70556 | 30182 ft | 440 kts | 47° |
| 2026-04-15 09:34 | 49.13988 | 1.76825 | 30184 ft | 439 kts | 47° |
| 2026-04-15 09:34 | 49.17218 | 1.82388 | 30190 ft | 439 kts | 47° |
| 2026-04-15 09:35 | 49.20997 | 1.88918 | 30190 ft | 439 kts | 47° |
| 2026-04-15 09:35 | 49.25004 | 1.95863 | 30192 ft | 438 kts | 47° |
| 2026-04-15 09:36 | 49.29033 | 2.02865 | 29972 ft | 438 kts | 47° |
| 2026-04-15 09:36 | 49.31043 | 2.06368 | 29684 ft | 436 kts | 47° |
| 2026-04-15 09:36 | 49.33037 | 2.09854 | 29408 ft | 434 kts | 47° |
| 2026-04-15 09:37 | 49.35018 | 2.13323 | 29142 ft | 432 kts | 47° |
| 2026-04-15 09:37 | 49.36986 | 2.16769 | 28840 ft | 426 kts | 47° |
| 2026-04-15 09:37 | 49.38930 | 2.20171 | 28332 ft | 422 kts | 47° |
| 2026-04-15 09:37 | 49.40856 | 2.23545 | 27844 ft | 417 kts | 47° |
| 2026-04-15 09:38 | 49.42757 | 2.26888 | 27374 ft | 413 kts | 48° |
| 2026-04-15 09:38 | 49.44638 | 2.30200 | 26920 ft | 409 kts | 47° |
| 2026-04-15 09:38 | 49.46500 | 2.33479 | 26453 ft | 405 kts | 47° |
| 2026-04-15 09:38 | 49.48345 | 2.36727 | 26004 ft | 401 kts | 47° |
| 2026-04-15 09:39 | 49.50173 | 2.39946 | 25554 ft | 398 kts | 48° |
| 2026-04-15 09:39 | 49.51980 | 2.43136 | 25099 ft | 395 kts | 48° |
| 2026-04-15 09:39 | 49.53778 | 2.46310 | 24645 ft | 392 kts | 47° |
| 2026-04-15 09:39 | 49.55731 | 2.49205 | 24188 ft | 388 kts | 37° |
| 2026-04-15 09:40 | 49.57944 | 2.51558 | 23711 ft | 385 kts | 30° |
| 2026-04-15 09:40 | 49.60208 | 2.53739 | 23203 ft | 382 kts | 30° |
| 2026-04-15 09:40 | 49.62452 | 2.55905 | 22737 ft | 379 kts | 30° |
| 2026-04-15 09:40 | 49.64651 | 2.58029 | 22277 ft | 376 kts | 30° |
| 2026-04-15 09:41 | 49.66860 | 2.60168 | 21818 ft | 374 kts | 30° |
| 2026-04-15 09:41 | 49.69058 | 2.62301 | 21354 ft | 372 kts | 30° |
| 2026-04-15 09:41 | 49.71240 | 2.64426 | 20891 ft | 370 kts | 31° |
| 2026-04-15 09:41 | 49.73419 | 2.66550 | 20441 ft | 369 kts | 30° |
| 2026-04-15 09:42 | 49.75589 | 2.68665 | 19989 ft | 368 kts | 30° |
| 2026-04-15 09:42 | 49.77754 | 2.70775 | 19536 ft | 367 kts | 30° |
| 2026-04-15 09:42 | 49.79913 | 2.72881 | 19089 ft | 366 kts | 31° |
| 2026-04-15 09:42 | 49.82062 | 2.74984 | 18640 ft | 365 kts | 31° |
| 2026-04-15 09:43 | 49.84205 | 2.77084 | 18152 ft | 364 kts | 31° |
| 2026-04-15 09:43 | 49.86336 | 2.79175 | 17709 ft | 361 kts | 31° |
| 2026-04-15 09:43 | 49.88450 | 2.81248 | 17271 ft | 358 kts | 31° |
| 2026-04-15 09:43 | 49.90553 | 2.83309 | 16843 ft | 356 kts | 31° |
| 2026-04-15 09:44 | 49.91937 | 2.84666 | 16558 ft | 355 kts | 31° |
| 2026-04-15 09:44 | 49.94025 | 2.86710 | 16133 ft | 354 kts | 31° |
| 2026-04-15 09:44 | 49.96100 | 2.88740 | 15713 ft | 352 kts | 31° |
| 2026-04-15 09:44 | 49.98171 | 2.90763 | 15290 ft | 351 kts | 31° |
| 2026-04-15 09:45 | 50.00241 | 2.92784 | 14869 ft | 351 kts | 31° |
| 2026-04-15 09:45 | 50.02303 | 2.94805 | 14455 ft | 351 kts | 31° |
| 2026-04-15 09:45 | 50.04366 | 2.96836 | 14011 ft | 351 kts | 31° |
| 2026-04-15 09:45 | 50.06426 | 2.98871 | 13555 ft | 350 kts | 31° |
| 2026-04-15 09:46 | 50.08471 | 3.00899 | 13124 ft | 348 kts | 31° |
| 2026-04-15 09:46 | 50.10505 | 3.02923 | 12695 ft | 346 kts | 31° |
| 2026-04-15 09:46 | 50.12526 | 3.04934 | 12262 ft | 344 kts | 31° |
| 2026-04-15 09:46 | 50.14538 | 3.06929 | 11822 ft | 342 kts | 31° |
| 2026-04-15 09:47 | 50.16539 | 3.08910 | 11392 ft | 339 kts | 31° |
| 2026-04-15 09:47 | 50.18528 | 3.10884 | 10951 ft | 339 kts | 32° |
| 2026-04-15 09:47 | 50.18836 | 3.11191 | 10883 ft | 339 kts | 32° |
| 2026-04-15 09:47 | 50.20645 | 3.12973 | 10551 ft | 335 kts | 31° |
| 2026-04-15 09:48 | 50.22608 | 3.14935 | 10230 ft | 331 kts | 34° |
| 2026-04-15 09:48 | 50.24377 | 3.17136 | 10096 ft | 320 kts | 39° |
| 2026-04-15 09:48 | 50.26064 | 3.19321 | 9914 ft | 311 kts | 39° |
| 2026-04-15 09:48 | 50.27728 | 3.21472 | 9566 ft | 308 kts | 39° |
| 2026-04-15 09:49 | 50.29379 | 3.23596 | 9176 ft | 306 kts | 39° |
| 2026-04-15 09:49 | 50.31015 | 3.25706 | 8798 ft | 304 kts | 39° |
| 2026-04-15 09:49 | 50.32642 | 3.27807 | 8397 ft | 302 kts | 39° |
| 2026-04-15 09:49 | 50.34256 | 3.29893 | 7996 ft | 300 kts | 39° |
| 2026-04-15 09:50 | 50.35863 | 3.31976 | 7597 ft | 299 kts | 39° |
| 2026-04-15 09:50 | 50.37460 | 3.34046 | 7201 ft | 297 kts | 39° |
| 2026-04-15 09:50 | 50.39136 | 3.35910 | 6807 ft | 295 kts | 27° |
| 2026-04-15 09:50 | 50.41016 | 3.37040 | 6400 ft | 292 kts | 12° |
| 2026-04-15 09:51 | 50.42995 | 3.37697 | 5977 ft | 290 kts | 11° |
| 2026-04-15 09:51 | 50.44969 | 3.38340 | 5586 ft | 290 kts | 10° |
| 2026-04-15 09:51 | 50.46914 | 3.38972 | 5421 ft | 277 kts | 11° |
| 2026-04-15 09:51 | 50.48740 | 3.39574 | 5220 ft | 261 kts | 11° |
| 2026-04-15 09:52 | 50.50508 | 3.39971 | 4791 ft | 255 kts | 358° |
| 2026-04-15 09:52 | 50.52248 | 3.39613 | 4281 ft | 251 kts | 345° |
| 2026-04-15 09:52 | 50.53955 | 3.39019 | 3728 ft | 250 kts | 345° |
| 2026-04-15 09:52 | 50.55654 | 3.38431 | 3331 ft | 249 kts | 345° |
| 2026-04-15 09:53 | 50.57347 | 3.37844 | 3116 ft | 248 kts | 344° |
| 2026-04-15 09:53 | 50.58876 | 3.36703 | 2893 ft | 243 kts | 313° |
| 2026-04-15 09:53 | 50.59701 | 3.34516 | 2674 ft | 231 kts | 277° |
| 2026-04-15 09:53 | 50.59668 | 3.32093 | 2419 ft | 213 kts | 253° |
| 2026-04-15 09:54 | 50.59352 | 3.29892 | 2253 ft | 201 kts | 251° |
| 2026-04-15 09:54 | 50.59050 | 3.27813 | 2146 ft | 190 kts | 251° |
| 2026-04-15 09:54 | 50.58764 | 3.25808 | 1989 ft | 187 kts | 251° |
| 2026-04-15 09:54 | 50.58488 | 3.23857 | 1733 ft | 177 kts | 252° |
| 2026-04-15 09:55 | 50.58227 | 3.21999 | 1472 ft | 170 kts | 252° |
| 2026-04-15 09:55 | 50.57976 | 3.20219 | 1282 ft | 162 kts | 251° |
| 2026-04-15 09:55 | 50.57746 | 3.18578 | 1047 ft | 146 kts | 250° |
| 2026-04-15 09:55 | 50.57533 | 3.17070 | 851 ft | 138 kts | 251° |
| 2026-04-15 09:56 | 50.57329 | 3.15632 | 675 ft | 132 kts | 250° |
| 2026-04-15 09:56 | 50.57130 | 3.14226 | 496 ft | 131 kts | 250° |
| 2026-04-15 09:56 | 50.56737 | 3.11453 | 160 ft | 127 kts | 248° |
| 2026-04-15 09:57 | 50.56574 | 3.10314 | 152 ft | 83 kts | 258° |
| 2026-04-15 09:57 | 50.56486 | 3.09686 | 152 ft | 34 kts | 258° |
| 2026-04-15 09:57 | 50.56437 | 3.09341 | 151 ft | 31 kts | 257° |
| 2026-04-15 09:57 | 50.56414 | 3.09137 | 152 ft | 13 kts | 282° |
| 2026-04-15 09:58 | 50.56482 | 3.09074 | 151 ft | 12 kts | 347° |
| 2026-04-15 09:58 | 50.56560 | 3.09053 | 151 ft | 11 kts | 360° |
| 2026-04-15 09:58 | 50.56605 | 3.09131 | 151 ft | 12 kts | 82° |
| 2026-04-15 09:58 | 50.56625 | 3.09277 | 152 ft | 14 kts | 77° |
| 2026-04-15 09:59 | 50.56648 | 3.09434 | 152 ft | 18 kts | 77° |
| 2026-04-15 09:59 | 50.56676 | 3.09636 | 152 ft | 20 kts | 77° |
| 2026-04-15 09:59 | 50.56707 | 3.09857 | 152 ft | 22 kts | 77° |
| 2026-04-15 09:59 | 50.56742 | 3.10105 | 152 ft | 24 kts | 78° |
| 2026-04-15 10:00 | 50.56779 | 3.10379 | 151 ft | 27 kts | 79° |
| 2026-04-15 10:00 | 50.56819 | 3.10656 | 151 ft | 19 kts | 74° |
| 2026-04-15 10:00 | 50.56887 | 3.10738 | 151 ft | 11 kts | 357° |
| 2026-04-15 10:00 | 50.56958 | 3.10712 | 151 ft | 10 kts | 346° |
| 2026-04-15 10:01 | 50.57018 | 3.10672 | 151 ft | 9 kts | 315° |
| 2026-04-15 10:01 | 50.57065 | 3.10626 | 152 ft | 6 kts | 345° |
| 2026-04-15 10:01 | 50.57092 | 3.10617 | 151 ft | 2 kts | 347° |
| 2026-04-15 10:01 | 50.57103 | 3.10613 | 152 ft | 1 kts | 347° |
| 2026-04-15 10:02 | 50.57104 | 3.10612 | 152 ft | 0 kts | 347° |
| 2026-04-15 10:05 | 50.57105 | 3.10612 | 152 ft | 0 kts | 347° |